sensor_id;sensor_type;location;lat;lon;timestamp;P1;durP1;ratioP1;P2;durP2;ratioP2
46230;SDS011;31949;51.404;-0.038;2022-08-19T00:01:54;3.17;;;2.00;;
46230;SDS011;31949;51.404;-0.038;2022-08-19T00:04:27;3.42;;;1.75;;
46230;SDS011;31949;51.404;-0.038;2022-08-19T00:06:56;2.58;;;1.50;;
46230;SDS011;31949;51.404;-0.038;2022-08-19T00:09:24;1.73;;;1.52;;
46230;SDS011;31949;51.404;-0.038;2022-08-19T00:11:53;3.58;;;1.60;;
46230;SDS011;31949;51.404;-0.038;2022-08-19T00:14:26;3.03;;;1.60;;
46230;SDS011;31949;51.404;-0.038;2022-08-19T00:17:00;3.63;;;2.10;;
46230;SDS011;31949;51.404;-0.038;2022-08-19T00:19:29;3.78;;;1.75;;
46230;SDS011;31949;51.404;-0.038;2022-08-19T00:21:57;1.50;;;1.15;;
46230;SDS011;31949;51.404;-0.038;2022-08-19T00:24:25;3.40;;;1.58;;
46230;SDS011;31949;51.404;-0.038;2022-08-19T00:26:52;3.13;;;1.60;;
46230;SDS011;31949;51.404;-0.038;2022-08-19T00:29:20;2.35;;;1.40;;
46230;SDS011;31949;51.404;-0.038;2022-08-19T00:31:49;1.50;;;1.35;;
46230;SDS011;31949;51.404;-0.038;2022-08-19T00:34:20;3.10;;;1.70;;
46230;SDS011;31949;51.404;-0.038;2022-08-19T00:36:48;2.63;;;1.50;;
46230;SDS011;31949;51.404;-0.038;2022-08-19T00:39:16;1.50;;;1.40;;
46230;SDS011;31949;51.404;-0.038;2022-08-19T00:41:45;4.95;;;1.67;;
46230;SDS011;31949;51.404;-0.038;2022-08-19T00:44:19;2.88;;;1.70;;
46230;SDS011;31949;51.404;-0.038;2022-08-19T00:46:53;3.58;;;2.17;;
46230;SDS011;31949;51.404;-0.038;2022-08-19T00:49:28;3.37;;;2.20;;
46230;SDS011;31949;51.404;-0.038;2022-08-19T00:52:09;1.60;;;1.50;;
46230;SDS011;31949;51.404;-0.038;2022-08-19T00:54:41;2.22;;;1.60;;
46230;SDS011;31949;51.404;-0.038;2022-08-19T00:57:10;5.10;;;2.13;;
46230;SDS011;31949;51.404;-0.038;2022-08-19T00:59:42;2.58;;;1.55;;
46230;SDS011;31949;51.404;-0.038;2022-08-19T01:02:27;3.22;;;2.20;;
46230;SDS011;31949;51.404;-0.038;2022-08-19T01:04:55;1.90;;;1.70;;
46230;SDS011;31949;51.404;-0.038;2022-08-19T01:07:23;4.97;;;2.67;;
46230;SDS011;31949;51.404;-0.038;2022-08-19T01:09:50;4.78;;;1.85;;
46230;SDS011;31949;51.404;-0.038;2022-08-19T01:12:18;4.43;;;2.70;;
46230;SDS011;31949;51.404;-0.038;2022-08-19T01:14:46;4.55;;;1.67;;
46230;SDS011;31949;51.404;-0.038;2022-08-19T01:17:14;2.45;;;2.00;;
46230;SDS011;31949;51.404;-0.038;2022-08-19T01:19:43;3.20;;;1.50;;
46230;SDS011;31949;51.404;-0.038;2022-08-19T01:25:00;1.60;;;1.38;;
46230;SDS011;31949;51.404;-0.038;2022-08-19T01:27:36;3.05;;;1.58;;
46230;SDS011;31949;51.404;-0.038;2022-08-19T01:30:11;4.80;;;1.95;;
46230;SDS011;31949;51.404;-0.038;2022-08-19T01:32:41;3.22;;;1.83;;
46230;SDS011;31949;51.404;-0.038;2022-08-19T01:35:10;3.78;;;1.80;;
46230;SDS011;31949;51.404;-0.038;2022-08-19T01:37:43;3.33;;;2.30;;
46230;SDS011;31949;51.404;-0.038;2022-08-19T01:40:12;3.03;;;1.90;;
46230;SDS011;31949;51.404;-0.038;2022-08-19T01:42:40;2.67;;;2.15;;
46230;SDS011;31949;51.404;-0.038;2022-08-19T01:45:07;3.92;;;2.08;;
46230;SDS011;31949;51.404;-0.038;2022-08-19T01:47:36;4.72;;;3.00;;
46230;SDS011;31949;51.404;-0.038;2022-08-19T01:50:04;3.65;;;2.45;;
46230;SDS011;31949;51.404;-0.038;2022-08-19T01:52:37;3.67;;;2.28;;
46230;SDS011;31949;51.404;-0.038;2022-08-19T01:55:07;2.55;;;2.17;;
46230;SDS011;31949;51.404;-0.038;2022-08-19T01:57:35;2.83;;;2.45;;
46230;SDS011;31949;51.404;-0.038;2022-08-19T02:00:05;3.25;;;2.17;;
46230;SDS011;31949;51.404;-0.038;2022-08-19T02:02:38;4.60;;;2.85;;
46230;SDS011;31949;51.404;-0.038;2022-08-19T02:05:10;2.90;;;2.38;;
46230;SDS011;31949;51.404;-0.038;2022-08-19T02:07:38;2.70;;;2.03;;
46230;SDS011;31949;51.404;-0.038;2022-08-19T02:10:08;3.53;;;2.53;;
46230;SDS011;31949;51.404;-0.038;2022-08-19T02:12:41;3.53;;;2.75;;
46230;SDS011;31949;51.404;-0.038;2022-08-19T02:15:09;6.32;;;2.90;;
46230;SDS011;31949;51.404;-0.038;2022-08-19T02:17:36;2.40;;;1.88;;
46230;SDS011;31949;51.404;-0.038;2022-08-19T02:20:05;4.82;;;3.00;;
46230;SDS011;31949;51.404;-0.038;2022-08-19T02:22:33;3.50;;;2.58;;
46230;SDS011;31949;51.404;-0.038;2022-08-19T02:25:01;3.50;;;2.85;;
46230;SDS011;31949;51.404;-0.038;2022-08-19T02:27:28;5.82;;;3.50;;
46230;SDS011;31949;51.404;-0.038;2022-08-19T02:29:56;3.15;;;2.25;;
46230;SDS011;31949;51.404;-0.038;2022-08-19T02:32:23;3.45;;;2.40;;
46230;SDS011;31949;51.404;-0.038;2022-08-19T02:34:50;4.65;;;2.17;;
46230;SDS011;31949;51.404;-0.038;2022-08-19T02:37:18;3.88;;;2.60;;
46230;SDS011;31949;51.404;-0.038;2022-08-19T02:40:03;5.78;;;2.90;;
46230;SDS011;31949;51.404;-0.038;2022-08-19T02:42:38;4.03;;;2.72;;
46230;SDS011;31949;51.404;-0.038;2022-08-19T02:45:07;4.63;;;2.45;;
46230;SDS011;31949;51.404;-0.038;2022-08-19T02:47:34;4.53;;;2.38;;
46230;SDS011;31949;51.404;-0.038;2022-08-19T02:50:02;5.20;;;2.33;;
46230;SDS011;31949;51.404;-0.038;2022-08-19T02:52:31;3.50;;;2.25;;
46230;SDS011;31949;51.404;-0.038;2022-08-19T02:54:59;4.72;;;3.15;;
46230;SDS011;31949;51.404;-0.038;2022-08-19T02:57:27;6.20;;;2.97;;
46230;SDS011;31949;51.404;-0.038;2022-08-19T02:59:58;3.55;;;2.67;;
46230;SDS011;31949;51.404;-0.038;2022-08-19T03:02:25;5.10;;;2.92;;
46230;SDS011;31949;51.404;-0.038;2022-08-19T03:04:53;3.88;;;2.80;;
46230;SDS011;31949;51.404;-0.038;2022-08-19T03:07:20;3.40;;;3.10;;
46230;SDS011;31949;51.404;-0.038;2022-08-19T03:09:48;4.78;;;3.10;;
46230;SDS011;31949;51.404;-0.038;2022-08-19T03:12:15;5.50;;;3.47;;
46230;SDS011;31949;51.404;-0.038;2022-08-19T03:14:42;5.10;;;2.80;;
46230;SDS011;31949;51.404;-0.038;2022-08-19T03:17:10;3.30;;;2.10;;
46230;SDS011;31949;51.404;-0.038;2022-08-19T03:19:37;6.18;;;3.13;;
46230;SDS011;31949;51.404;-0.038;2022-08-19T03:22:04;5.10;;;2.50;;
46230;SDS011;31949;51.404;-0.038;2022-08-19T03:24:32;4.00;;;2.45;;
46230;SDS011;31949;51.404;-0.038;2022-08-19T03:26:59;2.83;;;2.58;;
46230;SDS011;31949;51.404;-0.038;2022-08-19T03:29:27;3.58;;;2.75;;
46230;SDS011;31949;51.404;-0.038;2022-08-19T03:32:00;4.00;;;2.65;;
46230;SDS011;31949;51.404;-0.038;2022-08-19T03:34:31;5.05;;;3.25;;
46230;SDS011;31949;51.404;-0.038;2022-08-19T03:37:03;4.63;;;3.30;;
46230;SDS011;31949;51.404;-0.038;2022-08-19T03:39:32;5.05;;;2.55;;
46230;SDS011;31949;51.404;-0.038;2022-08-19T03:41:59;4.93;;;2.83;;
46230;SDS011;31949;51.404;-0.038;2022-08-19T03:44:48;3.67;;;2.10;;
46230;SDS011;31949;51.404;-0.038;2022-08-19T03:47:16;4.97;;;2.90;;
46230;SDS011;31949;51.404;-0.038;2022-08-19T03:49:43;2.97;;;2.55;;
46230;SDS011;31949;51.404;-0.038;2022-08-19T03:52:11;5.93;;;3.13;;
46230;SDS011;31949;51.404;-0.038;2022-08-19T03:54:39;3.25;;;2.80;;
46230;SDS011;31949;51.404;-0.038;2022-08-19T03:57:06;2.78;;;2.33;;
46230;SDS011;31949;51.404;-0.038;2022-08-19T03:59:36;3.35;;;1.90;;
46230;SDS011;31949;51.404;-0.038;2022-08-19T04:02:08;4.03;;;3.55;;
46230;SDS011;31949;51.404;-0.038;2022-08-19T04:04:41;4.90;;;3.50;;
46230;SDS011;31949;51.404;-0.038;2022-08-19T04:07:10;4.55;;;3.60;;
46230;SDS011;31949;51.404;-0.038;2022-08-19T04:12:09;4.32;;;3.45;;
46230;SDS011;31949;51.404;-0.038;2022-08-19T04:14:36;3.60;;;2.75;;
46230;SDS011;31949;51.404;-0.038;2022-08-19T04:17:03;3.10;;;2.80;;
46230;SDS011;31949;51.404;-0.038;2022-08-19T04:19:32;3.40;;;2.70;;
46230;SDS011;31949;51.404;-0.038;2022-08-19T04:22:00;3.67;;;2.80;;
46230;SDS011;31949;51.404;-0.038;2022-08-19T04:24:28;2.70;;;2.50;;
46230;SDS011;31949;51.404;-0.038;2022-08-19T04:26:56;3.17;;;2.90;;
46230;SDS011;31949;51.404;-0.038;2022-08-19T04:29:24;4.28;;;2.58;;
46230;SDS011;31949;51.404;-0.038;2022-08-19T04:31:54;4.40;;;2.92;;
46230;SDS011;31949;51.404;-0.038;2022-08-19T04:34:23;3.95;;;2.78;;
46230;SDS011;31949;51.404;-0.038;2022-08-19T04:36:52;3.95;;;3.15;;
46230;SDS011;31949;51.404;-0.038;2022-08-19T04:39:25;6.85;;;3.92;;
46230;SDS011;31949;51.404;-0.038;2022-08-19T04:42:14;4.32;;;3.58;;
46230;SDS011;31949;51.404;-0.038;2022-08-19T04:45:03;4.45;;;2.80;;
46230;SDS011;31949;51.404;-0.038;2022-08-19T04:47:38;4.70;;;2.90;;
46230;SDS011;31949;51.404;-0.038;2022-08-19T04:50:24;4.68;;;3.38;;
46230;SDS011;31949;51.404;-0.038;2022-08-19T04:52:53;4.30;;;2.60;;
46230;SDS011;31949;51.404;-0.038;2022-08-19T04:55:22;2.95;;;2.58;;
46230;SDS011;31949;51.404;-0.038;2022-08-19T04:57:52;4.60;;;3.42;;
46230;SDS011;31949;51.404;-0.038;2022-08-19T05:00:21;3.75;;;2.65;;
46230;SDS011;31949;51.404;-0.038;2022-08-19T05:02:48;3.55;;;2.70;;
46230;SDS011;31949;51.404;-0.038;2022-08-19T05:05:16;3.83;;;2.97;;
46230;SDS011;31949;51.404;-0.038;2022-08-19T05:07:43;4.13;;;3.38;;
46230;SDS011;31949;51.404;-0.038;2022-08-19T05:10:11;4.03;;;2.47;;
46230;SDS011;31949;51.404;-0.038;2022-08-19T05:12:39;2.38;;;1.95;;
46230;SDS011;31949;51.404;-0.038;2022-08-19T05:15:06;3.38;;;2.28;;
46230;SDS011;31949;51.404;-0.038;2022-08-19T05:17:35;5.35;;;2.30;;
46230;SDS011;31949;51.404;-0.038;2022-08-19T05:20:05;2.60;;;2.20;;
46230;SDS011;31949;51.404;-0.038;2022-08-19T05:22:52;2.53;;;1.88;;
46230;SDS011;31949;51.404;-0.038;2022-08-19T05:25:20;2.45;;;1.70;;
46230;SDS011;31949;51.404;-0.038;2022-08-19T05:27:48;3.13;;;1.50;;
46230;SDS011;31949;51.404;-0.038;2022-08-19T05:30:16;1.85;;;1.38;;
46230;SDS011;31949;51.404;-0.038;2022-08-19T05:32:44;3.70;;;1.30;;
46230;SDS011;31949;51.404;-0.038;2022-08-19T05:35:11;4.50;;;1.80;;
46230;SDS011;31949;51.404;-0.038;2022-08-19T05:37:38;2.45;;;1.40;;
46230;SDS011;31949;51.404;-0.038;2022-08-19T05:40:09;3.45;;;1.33;;
46230;SDS011;31949;51.404;-0.038;2022-08-19T05:42:37;1.83;;;1.05;;
46230;SDS011;31949;51.404;-0.038;2022-08-19T05:45:05;2.92;;;1.13;;
46230;SDS011;31949;51.404;-0.038;2022-08-19T05:47:33;1.98;;;1.10;;
46230;SDS011;31949;51.404;-0.038;2022-08-19T05:50:07;1.30;;;0.88;;
46230;SDS011;31949;51.404;-0.038;2022-08-19T05:52:36;1.80;;;1.23;;
46230;SDS011;31949;51.404;-0.038;2022-08-19T05:55:15;1.33;;;0.90;;
46230;SDS011;31949;51.404;-0.038;2022-08-19T05:57:43;5.57;;;2.08;;
46230;SDS011;31949;51.404;-0.038;2022-08-19T06:00:10;0.90;;;0.77;;
46230;SDS011;31949;51.404;-0.038;2022-08-19T06:02:39;1.50;;;0.65;;
46230;SDS011;31949;51.404;-0.038;2022-08-19T06:05:07;0.80;;;0.63;;
46230;SDS011;31949;51.404;-0.038;2022-08-19T06:07:36;1.23;;;0.88;;
46230;SDS011;31949;51.404;-0.038;2022-08-19T06:10:05;1.17;;;0.70;;
46230;SDS011;31949;51.404;-0.038;2022-08-19T06:12:34;2.35;;;0.85;;
46230;SDS011;31949;51.404;-0.038;2022-08-19T06:15:03;1.05;;;0.80;;
46230;SDS011;31949;51.404;-0.038;2022-08-19T06:17:33;1.17;;;1.00;;
46230;SDS011;31949;51.404;-0.038;2022-08-19T06:20:05;1.67;;;0.50;;
46230;SDS011;31949;51.404;-0.038;2022-08-19T06:22:38;1.98;;;0.70;;
46230;SDS011;31949;51.404;-0.038;2022-08-19T06:25:07;1.58;;;0.50;;
46230;SDS011;31949;51.404;-0.038;2022-08-19T06:27:38;0.50;;;0.40;;
46230;SDS011;31949;51.404;-0.038;2022-08-19T06:30:25;0.90;;;0.32;;
46230;SDS011;31949;51.404;-0.038;2022-08-19T06:32:53;1.27;;;0.45;;
46230;SDS011;31949;51.404;-0.038;2022-08-19T06:35:21;1.85;;;0.40;;
46230;SDS011;31949;51.404;-0.038;2022-08-19T06:37:48;2.00;;;0.80;;
46230;SDS011;31949;51.404;-0.038;2022-08-19T06:40:15;1.60;;;0.85;;
46230;SDS011;31949;51.404;-0.038;2022-08-19T06:42:43;2.25;;;0.63;;
46230;SDS011;31949;51.404;-0.038;2022-08-19T06:45:21;1.90;;;0.70;;
46230;SDS011;31949;51.404;-0.038;2022-08-19T06:48:00;2.22;;;0.60;;
46230;SDS011;31949;51.404;-0.038;2022-08-19T06:50:28;1.02;;;0.50;;
46230;SDS011;31949;51.404;-0.038;2022-08-19T06:52:56;1.35;;;0.60;;
46230;SDS011;31949;51.404;-0.038;2022-08-19T06:55:23;1.67;;;0.50;;
46230;SDS011;31949;51.404;-0.038;2022-08-19T06:57:51;1.52;;;0.70;;
46230;SDS011;31949;51.404;-0.038;2022-08-19T07:00:20;0.93;;;0.60;;
46230;SDS011;31949;51.404;-0.038;2022-08-19T07:02:47;1.48;;;0.50;;
46230;SDS011;31949;51.404;-0.038;2022-08-19T07:05:22;1.92;;;0.57;;
46230;SDS011;31949;51.404;-0.038;2022-08-19T07:07:50;3.10;;;0.50;;
46230;SDS011;31949;51.404;-0.038;2022-08-19T07:10:17;1.17;;;0.80;;
46230;SDS011;31949;51.404;-0.038;2022-08-19T07:12:45;0.65;;;0.45;;
46230;SDS011;31949;51.404;-0.038;2022-08-19T07:15:14;0.77;;;0.60;;
46230;SDS011;31949;51.404;-0.038;2022-08-19T07:17:44;1.27;;;0.45;;
46230;SDS011;31949;51.404;-0.038;2022-08-19T07:20:15;1.40;;;0.50;;
46230;SDS011;31949;51.404;-0.038;2022-08-19T07:22:44;0.50;;;0.50;;
46230;SDS011;31949;51.404;-0.038;2022-08-19T07:25:12;0.90;;;0.60;;
46230;SDS011;31949;51.404;-0.038;2022-08-19T07:27:39;3.25;;;0.70;;
46230;SDS011;31949;51.404;-0.038;2022-08-19T07:30:11;3.22;;;0.95;;
46230;SDS011;31949;51.404;-0.038;2022-08-19T07:32:40;3.95;;;0.60;;
46230;SDS011;31949;51.404;-0.038;2022-08-19T07:35:09;1.02;;;0.60;;
46230;SDS011;31949;51.404;-0.038;2022-08-19T07:37:36;2.50;;;0.98;;
46230;SDS011;31949;51.404;-0.038;2022-08-19T07:40:05;2.10;;;0.47;;
46230;SDS011;31949;51.404;-0.038;2022-08-19T07:42:33;3.15;;;1.15;;
46230;SDS011;31949;51.404;-0.038;2022-08-19T07:45:01;2.35;;;0.57;;
46230;SDS011;31949;51.404;-0.038;2022-08-19T07:47:29;1.05;;;0.60;;
46230;SDS011;31949;51.404;-0.038;2022-08-19T07:50:16;0.75;;;0.45;;
46230;SDS011;31949;51.404;-0.038;2022-08-19T07:52:45;4.00;;;0.90;;
46230;SDS011;31949;51.404;-0.038;2022-08-19T07:55:15;2.38;;;0.50;;
46230;SDS011;31949;51.404;-0.038;2022-08-19T07:58:05;2.10;;;0.50;;
46230;SDS011;31949;51.404;-0.038;2022-08-19T08:00:32;1.23;;;0.47;;
46230;SDS011;31949;51.404;-0.038;2022-08-19T08:03:01;2.35;;;0.50;;
46230;SDS011;31949;51.404;-0.038;2022-08-19T08:05:28;1.77;;;0.80;;
46230;SDS011;31949;51.404;-0.038;2022-08-19T08:08:14;0.63;;;0.40;;
46230;SDS011;31949;51.404;-0.038;2022-08-19T08:11:00;1.40;;;0.40;;
46230;SDS011;31949;51.404;-0.038;2022-08-19T08:13:30;2.15;;;0.52;;
46230;SDS011;31949;51.404;-0.038;2022-08-19T08:15:59;1.23;;;0.70;;
46230;SDS011;31949;51.404;-0.038;2022-08-19T08:18:26;1.15;;;0.45;;
46230;SDS011;31949;51.404;-0.038;2022-08-19T08:20:56;1.65;;;0.60;;
46230;SDS011;31949;51.404;-0.038;2022-08-19T08:23:24;2.50;;;0.60;;
46230;SDS011;31949;51.404;-0.038;2022-08-19T08:25:54;2.65;;;0.40;;
46230;SDS011;31949;51.404;-0.038;2022-08-19T08:28:25;3.57;;;0.60;;
46230;SDS011;31949;51.404;-0.038;2022-08-19T08:30:55;2.00;;;0.70;;
46230;SDS011;31949;51.404;-0.038;2022-08-19T08:33:25;2.17;;;0.60;;
46230;SDS011;31949;51.404;-0.038;2022-08-19T08:36:10;2.80;;;0.88;;
46230;SDS011;31949;51.404;-0.038;2022-08-19T08:38:40;2.72;;;0.47;;
46230;SDS011;31949;51.404;-0.038;2022-08-19T08:43:52;3.47;;;0.63;;
46230;SDS011;31949;51.404;-0.038;2022-08-19T08:46:28;2.00;;;0.70;;
46230;SDS011;31949;51.404;-0.038;2022-08-19T08:49:26;2.08;;;0.77;;
46230;SDS011;31949;51.404;-0.038;2022-08-19T08:52:10;1.67;;;0.65;;
46230;SDS011;31949;51.404;-0.038;2022-08-19T08:54:59;1.30;;;0.60;;
46230;SDS011;31949;51.404;-0.038;2022-08-19T09:00:27;3.53;;;0.88;;
46230;SDS011;31949;51.404;-0.038;2022-08-19T09:03:01;2.58;;;0.60;;
46230;SDS011;31949;51.404;-0.038;2022-08-19T09:05:33;4.70;;;0.65;;
46230;SDS011;31949;51.404;-0.038;2022-08-19T09:10:59;0.98;;;0.50;;
46230;SDS011;31949;51.404;-0.038;2022-08-19T09:13:38;5.38;;;0.90;;
46230;SDS011;31949;51.404;-0.038;2022-08-19T09:16:16;3.47;;;0.93;;
46230;SDS011;31949;51.404;-0.038;2022-08-19T09:18:54;1.15;;;0.73;;
46230;SDS011;31949;51.404;-0.038;2022-08-19T09:21:25;4.95;;;0.93;;
46230;SDS011;31949;51.404;-0.038;2022-08-19T09:23:59;0.88;;;0.52;;
46230;SDS011;31949;51.404;-0.038;2022-08-19T09:26:29;2.15;;;0.70;;
46230;SDS011;31949;51.404;-0.038;2022-08-19T09:29:14;1.30;;;0.70;;
46230;SDS011;31949;51.404;-0.038;2022-08-19T09:31:43;1.92;;;0.60;;
46230;SDS011;31949;51.404;-0.038;2022-08-19T09:34:10;0.88;;;0.60;;
46230;SDS011;31949;51.404;-0.038;2022-08-19T09:36:47;4.10;;;0.70;;
46230;SDS011;31949;51.404;-0.038;2022-08-19T09:39:16;1.95;;;0.73;;
46230;SDS011;31949;51.404;-0.038;2022-08-19T09:41:44;1.50;;;0.85;;
46230;SDS011;31949;51.404;-0.038;2022-08-19T09:44:14;2.25;;;1.00;;
46230;SDS011;31949;51.404;-0.038;2022-08-19T09:46:43;2.28;;;1.10;;
46230;SDS011;31949;51.404;-0.038;2022-08-19T09:49:14;4.20;;;1.63;;
46230;SDS011;31949;51.404;-0.038;2022-08-19T09:51:44;2.45;;;0.60;;
46230;SDS011;31949;51.404;-0.038;2022-08-19T09:54:17;1.30;;;0.75;;
46230;SDS011;31949;51.404;-0.038;2022-08-19T09:56:51;1.92;;;0.85;;
46230;SDS011;31949;51.404;-0.038;2022-08-19T09:59:20;2.67;;;0.57;;
46230;SDS011;31949;51.404;-0.038;2022-08-19T10:01:47;1.98;;;0.60;;
46230;SDS011;31949;51.404;-0.038;2022-08-19T10:04:15;3.40;;;0.85;;
46230;SDS011;31949;51.404;-0.038;2022-08-19T10:06:48;1.90;;;0.93;;
46230;SDS011;31949;51.404;-0.038;2022-08-19T10:09:19;2.75;;;0.80;;
46230;SDS011;31949;51.404;-0.038;2022-08-19T10:11:59;2.50;;;0.60;;
46230;SDS011;31949;51.404;-0.038;2022-08-19T10:14:28;4.60;;;1.27;;
46230;SDS011;31949;51.404;-0.038;2022-08-19T10:16:56;2.75;;;0.80;;
46230;SDS011;31949;51.404;-0.038;2022-08-19T10:19:24;4.13;;;1.27;;
46230;SDS011;31949;51.404;-0.038;2022-08-19T10:21:53;2.85;;;1.27;;
46230;SDS011;31949;51.404;-0.038;2022-08-19T10:24:26;3.13;;;1.38;;
46230;SDS011;31949;51.404;-0.038;2022-08-19T10:26:55;5.22;;;1.33;;
46230;SDS011;31949;51.404;-0.038;2022-08-19T10:29:26;3.00;;;0.80;;
46230;SDS011;31949;51.404;-0.038;2022-08-19T10:32:02;4.03;;;1.25;;
46230;SDS011;31949;51.404;-0.038;2022-08-19T10:34:36;3.45;;;0.90;;
46230;SDS011;31949;51.404;-0.038;2022-08-19T10:37:15;4.18;;;1.67;;
46230;SDS011;31949;51.404;-0.038;2022-08-19T10:39:54;2.90;;;1.20;;
46230;SDS011;31949;51.404;-0.038;2022-08-19T10:42:22;2.97;;;1.45;;
46230;SDS011;31949;51.404;-0.038;2022-08-19T10:44:50;3.88;;;0.90;;
46230;SDS011;31949;51.404;-0.038;2022-08-19T10:47:17;3.88;;;1.00;;
46230;SDS011;31949;51.404;-0.038;2022-08-19T10:49:54;5.38;;;1.38;;
46230;SDS011;31949;51.404;-0.038;2022-08-19T10:52:42;4.30;;;1.55;;
46230;SDS011;31949;51.404;-0.038;2022-08-19T10:55:17;8.43;;;1.55;;
46230;SDS011;31949;51.404;-0.038;2022-08-19T10:58:19;4.10;;;1.23;;
46230;SDS011;31949;51.404;-0.038;2022-08-19T11:00:53;4.97;;;1.50;;
46230;SDS011;31949;51.404;-0.038;2022-08-19T11:03:22;4.57;;;1.10;;
46230;SDS011;31949;51.404;-0.038;2022-08-19T11:06:00;6.32;;;1.40;;
46230;SDS011;31949;51.404;-0.038;2022-08-19T11:08:29;8.18;;;1.92;;
46230;SDS011;31949;51.404;-0.038;2022-08-19T11:10:59;4.72;;;1.00;;
46230;SDS011;31949;51.404;-0.038;2022-08-19T11:13:30;3.55;;;1.10;;
46230;SDS011;31949;51.404;-0.038;2022-08-19T11:16:00;3.58;;;1.17;;
46230;SDS011;31949;51.404;-0.038;2022-08-19T11:18:37;2.53;;;0.98;;
46230;SDS011;31949;51.404;-0.038;2022-08-19T11:21:40;3.95;;;1.02;;
46230;SDS011;31949;51.404;-0.038;2022-08-19T11:24:05;4.80;;;0.93;;
46230;SDS011;31949;51.404;-0.038;2022-08-19T11:26:35;6.32;;;1.45;;
46230;SDS011;31949;51.404;-0.038;2022-08-19T11:29:03;5.82;;;1.30;;
46230;SDS011;31949;51.404;-0.038;2022-08-19T11:31:33;5.95;;;1.88;;
46230;SDS011;31949;51.404;-0.038;2022-08-19T11:34:06;3.45;;;1.67;;
46230;SDS011;31949;51.404;-0.038;2022-08-19T11:36:39;2.72;;;1.15;;
46230;SDS011;31949;51.404;-0.038;2022-08-19T11:39:09;4.88;;;1.58;;
46230;SDS011;31949;51.404;-0.038;2022-08-19T11:41:38;3.15;;;1.40;;
46230;SDS011;31949;51.404;-0.038;2022-08-19T11:44:07;5.68;;;1.98;;
46230;SDS011;31949;51.404;-0.038;2022-08-19T11:46:36;3.55;;;1.38;;
46230;SDS011;31949;51.404;-0.038;2022-08-19T11:49:04;2.13;;;1.17;;
46230;SDS011;31949;51.404;-0.038;2022-08-19T11:51:39;5.57;;;1.70;;
46230;SDS011;31949;51.404;-0.038;2022-08-19T11:54:08;7.70;;;2.28;;
46230;SDS011;31949;51.404;-0.038;2022-08-19T11:56:37;9.13;;;2.67;;
46230;SDS011;31949;51.404;-0.038;2022-08-19T11:59:05;4.55;;;1.70;;
46230;SDS011;31949;51.404;-0.038;2022-08-19T12:01:40;5.80;;;2.63;;
46230;SDS011;31949;51.404;-0.038;2022-08-19T12:04:09;6.03;;;1.70;;
46230;SDS011;31949;51.404;-0.038;2022-08-19T12:06:38;3.47;;;1.77;;
46230;SDS011;31949;51.404;-0.038;2022-08-19T12:09:07;8.00;;;2.67;;
46230;SDS011;31949;51.404;-0.038;2022-08-19T12:11:36;3.72;;;1.50;;
46230;SDS011;31949;51.404;-0.038;2022-08-19T12:14:04;9.75;;;2.58;;
46230;SDS011;31949;51.404;-0.038;2022-08-19T12:16:32;4.05;;;1.63;;
46230;SDS011;31949;51.404;-0.038;2022-08-19T12:19:03;4.65;;;1.90;;
46230;SDS011;31949;51.404;-0.038;2022-08-19T12:21:32;4.38;;;1.77;;
46230;SDS011;31949;51.404;-0.038;2022-08-19T12:24:02;6.65;;;1.80;;
46230;SDS011;31949;51.404;-0.038;2022-08-19T12:26:32;9.50;;;2.22;;
46230;SDS011;31949;51.404;-0.038;2022-08-19T12:29:18;7.45;;;2.13;;
46230;SDS011;31949;51.404;-0.038;2022-08-19T12:31:49;5.93;;;1.70;;
46230;SDS011;31949;51.404;-0.038;2022-08-19T12:34:17;4.60;;;1.50;;
46230;SDS011;31949;51.404;-0.038;2022-08-19T12:36:46;6.20;;;1.98;;
46230;SDS011;31949;51.404;-0.038;2022-08-19T12:39:16;3.33;;;1.88;;
46230;SDS011;31949;51.404;-0.038;2022-08-19T12:41:43;6.30;;;1.75;;
46230;SDS011;31949;51.404;-0.038;2022-08-19T12:44:20;7.88;;;1.95;;
46230;SDS011;31949;51.404;-0.038;2022-08-19T12:46:55;8.02;;;2.33;;
46230;SDS011;31949;51.404;-0.038;2022-08-19T12:49:23;6.45;;;1.58;;
46230;SDS011;31949;51.404;-0.038;2022-08-19T12:52:11;5.68;;;1.95;;
46230;SDS011;31949;51.404;-0.038;2022-08-19T12:54:42;5.97;;;2.00;;
46230;SDS011;31949;51.404;-0.038;2022-08-19T12:57:12;3.67;;;1.55;;
46230;SDS011;31949;51.404;-0.038;2022-08-19T12:59:39;5.47;;;1.38;;
46230;SDS011;31949;51.404;-0.038;2022-08-19T13:02:07;5.85;;;1.63;;
46230;SDS011;31949;51.404;-0.038;2022-08-19T13:04:35;7.88;;;2.30;;
46230;SDS011;31949;51.404;-0.038;2022-08-19T13:07:07;6.30;;;2.30;;
46230;SDS011;31949;51.404;-0.038;2022-08-19T13:09:35;6.53;;;2.03;;
46230;SDS011;31949;51.404;-0.038;2022-08-19T13:12:03;5.50;;;2.15;;
46230;SDS011;31949;51.404;-0.038;2022-08-19T13:14:34;8.15;;;1.88;;
46230;SDS011;31949;51.404;-0.038;2022-08-19T13:17:02;7.32;;;1.80;;
46230;SDS011;31949;51.404;-0.038;2022-08-19T13:19:29;4.38;;;1.95;;
46230;SDS011;31949;51.404;-0.038;2022-08-19T13:21:58;6.30;;;2.03;;
46230;SDS011;31949;51.404;-0.038;2022-08-19T13:24:26;7.35;;;1.70;;
46230;SDS011;31949;51.404;-0.038;2022-08-19T13:27:00;12.48;;;2.63;;
46230;SDS011;31949;51.404;-0.038;2022-08-19T13:29:27;6.05;;;1.63;;
46230;SDS011;31949;51.404;-0.038;2022-08-19T13:32:13;8.15;;;1.70;;
46230;SDS011;31949;51.404;-0.038;2022-08-19T13:35:01;7.68;;;2.38;;
46230;SDS011;31949;51.404;-0.038;2022-08-19T13:37:29;7.95;;;1.92;;
46230;SDS011;31949;51.404;-0.038;2022-08-19T13:40:10;5.57;;;1.90;;
46230;SDS011;31949;51.404;-0.038;2022-08-19T13:42:44;7.88;;;1.75;;
46230;SDS011;31949;51.404;-0.038;2022-08-19T13:45:21;6.28;;;1.77;;
46230;SDS011;31949;51.404;-0.038;2022-08-19T13:47:51;7.85;;;2.20;;
46230;SDS011;31949;51.404;-0.038;2022-08-19T13:50:26;6.38;;;2.60;;
46230;SDS011;31949;51.404;-0.038;2022-08-19T13:52:58;4.88;;;2.00;;
46230;SDS011;31949;51.404;-0.038;2022-08-19T13:55:26;4.43;;;2.55;;
46230;SDS011;31949;51.404;-0.038;2022-08-19T13:57:55;7.75;;;2.45;;
46230;SDS011;31949;51.404;-0.038;2022-08-19T14:00:24;9.85;;;2.38;;
46230;SDS011;31949;51.404;-0.038;2022-08-19T14:02:53;6.25;;;1.75;;
46230;SDS011;31949;51.404;-0.038;2022-08-19T14:05:22;5.25;;;1.90;;
46230;SDS011;31949;51.404;-0.038;2022-08-19T14:07:51;8.02;;;2.22;;
46230;SDS011;31949;51.404;-0.038;2022-08-19T14:10:19;12.38;;;2.75;;
46230;SDS011;31949;51.404;-0.038;2022-08-19T14:12:47;5.22;;;1.40;;
46230;SDS011;31949;51.404;-0.038;2022-08-19T14:15:15;5.28;;;1.60;;
46230;SDS011;31949;51.404;-0.038;2022-08-19T14:17:43;5.70;;;1.70;;
46230;SDS011;31949;51.404;-0.038;2022-08-19T14:20:13;6.50;;;1.75;;
46230;SDS011;31949;51.404;-0.038;2022-08-19T14:22:44;4.30;;;1.38;;
46230;SDS011;31949;51.404;-0.038;2022-08-19T14:25:14;6.40;;;1.60;;
46230;SDS011;31949;51.404;-0.038;2022-08-19T14:27:44;4.53;;;1.40;;
46230;SDS011;31949;51.404;-0.038;2022-08-19T14:30:14;5.32;;;1.92;;
46230;SDS011;31949;51.404;-0.038;2022-08-19T14:32:43;5.88;;;1.98;;
46230;SDS011;31949;51.404;-0.038;2022-08-19T14:35:11;5.97;;;1.60;;
46230;SDS011;31949;51.404;-0.038;2022-08-19T14:37:40;3.75;;;1.58;;
46230;SDS011;31949;51.404;-0.038;2022-08-19T14:40:15;4.65;;;1.38;;
46230;SDS011;31949;51.404;-0.038;2022-08-19T14:42:44;4.95;;;1.50;;
46230;SDS011;31949;51.404;-0.038;2022-08-19T14:45:11;2.83;;;1.38;;
46230;SDS011;31949;51.404;-0.038;2022-08-19T14:47:39;7.60;;;1.50;;
46230;SDS011;31949;51.404;-0.038;2022-08-19T14:50:07;4.85;;;1.58;;
46230;SDS011;31949;51.404;-0.038;2022-08-19T14:52:47;5.30;;;1.60;;
46230;SDS011;31949;51.404;-0.038;2022-08-19T14:55:16;4.72;;;1.40;;
46230;SDS011;31949;51.404;-0.038;2022-08-19T14:57:44;6.30;;;1.50;;
46230;SDS011;31949;51.404;-0.038;2022-08-19T15:00:12;4.43;;;1.67;;
46230;SDS011;31949;51.404;-0.038;2022-08-19T15:02:41;5.93;;;2.03;;
46230;SDS011;31949;51.404;-0.038;2022-08-19T15:05:11;8.48;;;1.77;;
46230;SDS011;31949;51.404;-0.038;2022-08-19T15:07:39;4.40;;;2.10;;
46230;SDS011;31949;51.404;-0.038;2022-08-19T15:10:08;3.17;;;1.50;;